createdAt,value
2022-07-30T00:00:50.906Z,95736.47
2022-07-30T00:01:53.261Z,95726.56
2022-07-30T00:02:56.168Z,95725.81
2022-07-30T00:03:58.114Z,95734.16
2022-07-30T00:05:01.125Z,95729.88
2022-07-30T00:06:04.150Z,95731.13
2022-07-30T00:07:06.278Z,95729.09
2022-07-30T00:08:09.207Z,95728.34
2022-07-30T00:09:11.267Z,95728.34
2022-07-30T00:10:14.226Z,95726.81
2022-07-30T00:11:17.354Z,95718.19
2022-07-30T00:12:20.261Z,95721.75
2022-07-30T00:13:22.149Z,95719.72
2022-07-30T00:14:25.919Z,95723.00
2022-07-30T00:15:29.496Z,95716.19
2022-07-30T00:16:32.549Z,95718.19
2022-07-30T00:17:34.443Z,95715.16
2022-07-30T00:18:37.623Z,95711.59
2022-07-30T00:19:40.748Z,95711.09
2022-07-30T00:20:44.401Z,95708.06
2022-07-30T00:21:46.949Z,95709.59
2022-07-30T00:22:51.008Z,95710.84
2022-07-30T00:24:01.917Z,95712.84
2022-07-30T00:25:06.809Z,95708.06
2022-07-30T00:26:08.873Z,95706.53
2022-07-30T00:27:11.723Z,95695.41
2022-07-30T00:28:16.773Z,95705.00
2022-07-30T00:29:18.777Z,95706.53
2022-07-30T00:30:21.887Z,95710.56
2022-07-30T00:31:25.393Z,95709.03
2022-07-30T00:32:28.235Z,95709.03
2022-07-30T00:33:30.173Z,95707.53
2022-07-30T00:34:33.126Z,95703.97
2022-07-30T00:35:35.442Z,95706.75
2022-07-30T00:36:38.334Z,95701.97
2022-07-30T00:37:41.373Z,95711.53
2022-07-30T00:38:44.290Z,95717.09
2022-07-30T00:39:46.132Z,95710.03
2022-07-30T00:40:49.156Z,95704.47
2022-07-30T00:41:56.844Z,95714.06
2022-07-30T00:42:59.886Z,95710.50
2022-07-30T00:44:01.791Z,95709.75
2022-07-30T00:45:05.200Z,95705.72
2022-07-30T00:46:07.212Z,95706.22
2022-07-30T00:47:11.520Z,95702.69
2022-07-30T00:48:14.449Z,95699.13
2022-07-30T00:49:17.495Z,95705.47
2022-07-30T00:50:19.631Z,95701.13
2022-07-30T00:51:24.517Z,95702.41
2022-07-30T00:52:26.457Z,95706.72
2022-07-30T00:53:29.360Z,95702.41
2022-07-30T00:54:31.316Z,95703.91
2022-07-30T00:55:35.641Z,95703.91
2022-07-30T00:56:37.554Z,95702.41
2022-07-30T00:57:41.978Z,95703.91
2022-07-30T00:58:43.882Z,95708.72
2022-07-30T00:59:46.725Z,95710.75
2022-07-30T01:00:48.681Z,95704.91
2022-07-30T01:01:52.269Z,95709.22
2022-07-30T01:02:55.685Z,95697.81
2022-07-30T01:03:58.545Z,95697.81
2022-07-30T01:05:00.473Z,95697.81
2022-07-30T01:06:03.393Z,95701.88
2022-07-30T01:07:05.257Z,95699.09
2022-07-30T01:08:08.228Z,95693.25
2022-07-30T01:09:10.292Z,95697.28
2022-07-30T01:10:15.429Z,95692.50
2022-07-30T01:11:17.396Z,95698.53
2022-07-30T01:12:21.948Z,95696.50
2022-07-30T01:13:25.172Z,95694.25
2022-07-30T01:14:27.065Z,95687.91
2022-07-30T01:15:30.723Z,95688.69
2022-07-30T01:16:33.055Z,95691.94
2022-07-30T01:17:36.850Z,95687.13
2022-07-30T01:19:00.935Z,95691.19
2022-07-30T01:20:08.319Z,95689.16
2022-07-30T01:21:15.784Z,95688.13
2022-07-30T01:22:24.686Z,95692.44
2022-07-30T01:23:39.272Z,95688.13
2022-07-30T01:24:55.839Z,95692.16
2022-07-30T01:26:05.480Z,95686.59
2022-07-30T01:27:08.755Z,95693.41
2022-07-30T01:28:14.113Z,95685.06
2022-07-30T01:29:22.896Z,95691.13
2022-07-30T01:30:30.111Z,95684.81
2022-07-30T01:31:33.986Z,95687.59
2022-07-30T01:32:42.852Z,95680.50
2022-07-30T01:33:47.519Z,95681.75
2022-07-30T01:34:51.276Z,95676.19
2022-07-30T01:35:55.441Z,95678.97
2022-07-30T01:37:00.578Z,95676.19
2022-07-30T01:38:05.725Z,95677.47
2022-07-30T01:39:08.866Z,95681.00
2022-07-30T01:40:14.630Z,95675.91
2022-07-30T01:41:19.545Z,95675.91
2022-07-30T01:42:25.844Z,95687.03
2022-07-30T01:43:28.795Z,95685.53
2022-07-30T01:44:33.213Z,95685.53
2022-07-30T01:45:42.191Z,95678.41
2022-07-30T01:46:49.304Z,95687.56
2022-07-30T01:47:53.323Z,95689.53
2022-07-30T01:48:59.232Z,95680.44
2022-07-30T01:50:06.433Z,95686.75
2022-07-30T01:51:14.758Z,95682.47
2022-07-30T01:52:22.587Z,95685.25
2022-07-30T01:53:28.196Z,95686.50
2022-07-30T01:54:33.311Z,95686.50
2022-07-30T01:55:38.092Z,95692.06
2022-07-30T01:56:42.631Z,95686.50
2022-07-30T01:57:48.147Z,95688.50
2022-07-30T01:58:52.451Z,95686.50
2022-07-30T02:00:03.134Z,95691.81
2022-07-30T02:01:18.715Z,95683.47
2022-07-30T02:02:21.998Z,95683.47
2022-07-30T02:03:24.489Z,95690.25
2022-07-30T02:04:29.427Z,95691.53
2022-07-30T02:05:34.287Z,95685.19
2022-07-30T02:06:43.090Z,95691.53
2022-07-30T02:07:56.171Z,95690.00
2022-07-30T02:09:10.674Z,95689.22
2022-07-30T02:10:19.313Z,95687.72
2022-07-30T02:11:37.944Z,95688.47
2022-07-30T02:12:47.277Z,95687.72
2022-07-30T02:13:53.223Z,95686.94
2022-07-30T02:15:04.434Z,95677.09
2022-07-30T02:16:12.359Z,95693.75
2022-07-30T02:17:19.394Z,95683.13
2022-07-30T02:18:29.105Z,95688.69
2022-07-30T02:19:42.640Z,95683.63
2022-07-30T02:21:00.063Z,95673.75
2022-07-30T02:22:08.731Z,95685.63
2022-07-30T02:23:16.232Z,95673.75
2022-07-30T02:24:22.072Z,95688.91
2022-07-30T02:25:26.524Z,95681.81
2022-07-30T02:26:30.641Z,95693.69
2022-07-30T02:27:36.306Z,95690.91
2022-07-30T02:28:45.017Z,95692.94
2022-07-30T02:29:48.784Z,95692.94
2022-07-30T02:30:55.324Z,95692.94
2022-07-30T02:31:59.713Z,95701.78
2022-07-30T02:33:10.578Z,95690.66
2022-07-30T02:34:14.437Z,95695.44
2022-07-30T02:35:21.128Z,95692.19
2022-07-30T02:36:25.737Z,95699.00
2022-07-30T02:37:43.385Z,95695.44
2022-07-30T02:38:47.423Z,95693.94
2022-07-30T02:39:52.057Z,95688.09
2022-07-30T02:40:57.699Z,95695.66
2022-07-30T02:42:00.670Z,95694.91
2022-07-30T02:43:04.257Z,95690.59
2022-07-30T02:44:10.499Z,95689.84
2022-07-30T02:45:16.039Z,95689.84
2022-07-30T02:46:20.829Z,95689.84
2022-07-30T02:47:42.909Z,95689.84
2022-07-30T02:48:47.852Z,95691.84
2022-07-30T02:49:51.306Z,95687.81
2022-07-30T02:50:55.677Z,95683.53
2022-07-30T02:51:59.115Z,95691.84
2022-07-30T02:53:03.832Z,95680.75
2022-07-30T02:54:08.033Z,95684.75
2022-07-30T02:55:13.630Z,95684.00
2022-07-30T02:56:17.445Z,95680.47
2022-07-30T02:57:22.297Z,95683.25
2022-07-30T02:58:27.163Z,95688.81
2022-07-30T02:59:31.679Z,95680.47
2022-07-30T03:00:36.356Z,95676.41
2022-07-30T03:01:38.852Z,95679.19
2022-07-30T03:02:43.560Z,95679.19
2022-07-30T03:03:47.427Z,95681.97
2022-07-30T03:04:50.591Z,95672.13
2022-07-30T03:05:53.009Z,95670.59
2022-07-30T03:06:57.043Z,95676.16
2022-07-30T03:08:00.218Z,95672.13
2022-07-30T03:09:04.510Z,95676.94
2022-07-30T03:10:07.780Z,95674.63
2022-07-30T03:11:11.941Z,95673.09
2022-07-30T03:12:16.733Z,95678.66
2022-07-30T03:13:22.916Z,95671.84
2022-07-30T03:14:24.992Z,95674.63
2022-07-30T03:15:30.738Z,95675.88
2022-07-30T03:16:36.983Z,95669.56
2022-07-30T03:17:44.109Z,95677.88
2022-07-30T03:18:47.844Z,95670.06
2022-07-30T03:19:53.320Z,95663.72
2022-07-30T03:20:59.511Z,95662.19
2022-07-30T03:22:04.391Z,95665.47
2022-07-30T03:23:08.201Z,95665.47
2022-07-30T03:24:13.344Z,95668.25
2022-07-30T03:25:19.612Z,95662.69
2022-07-30T03:26:23.859Z,95659.91
2022-07-30T03:27:26.869Z,95659.91
2022-07-30T03:28:34.079Z,95671.03
2022-07-30T03:29:38.740Z,95669.47
2022-07-30T03:30:44.679Z,95662.38
2022-07-30T03:31:47.613Z,95675.50
2022-07-30T03:32:52.896Z,95665.16
2022-07-30T03:33:55.445Z,95675.50
2022-07-30T03:35:05.683Z,95679.06
2022-07-30T03:36:09.965Z,95676.28
2022-07-30T03:37:13.773Z,95675.03
2022-07-30T03:38:16.483Z,95675.50
2022-07-30T03:39:30.157Z,95677.53
2022-07-30T03:40:34.331Z,95677.53
2022-07-30T03:41:38.524Z,95680.78
2022-07-30T03:42:43.807Z,95684.34
2022-07-30T03:43:46.777Z,95680.03
2022-07-30T03:44:51.041Z,95682.81
2022-07-30T03:45:56.038Z,95689.66
2022-07-30T03:47:02.312Z,95686.88
2022-07-30T03:48:09.153Z,95681.31
2022-07-30T03:49:14.993Z,95685.31
2022-07-30T03:50:21.534Z,95684.56
2022-07-30T03:51:25.471Z,95686.59
2022-07-30T03:52:37.291Z,95690.59
2022-07-30T03:53:46.973Z,95689.84
2022-07-30T03:55:10.029Z,95693.38
2022-07-30T03:56:21.119Z,95689.09
2022-07-30T03:57:34.106Z,95689.09
2022-07-30T03:58:38.165Z,95702.97
2022-07-30T03:59:43.003Z,95702.97
2022-07-30T04:00:48.222Z,95704.22
2022-07-30T04:01:53.886Z,95709.50
2022-07-30T04:03:25.061Z,95712.28
2022-07-30T04:04:30.322Z,95711.50
2022-07-30T04:05:41.129Z,95706.72
2022-07-30T04:06:45.354Z,95719.38
2022-07-30T04:07:49.877Z,95719.84
2022-07-30T04:08:56.309Z,95719.09
2022-07-30T04:09:58.273Z,95725.91
2022-07-30T04:11:19.924Z,95718.06
2022-07-30T04:12:44.466Z,95724.38
2022-07-30T04:13:46.680Z,95725.63
2022-07-30T04:14:53.762Z,95728.41
2022-07-30T04:16:05.419Z,95728.41
2022-07-30T04:17:36.204Z,95726.88
2022-07-30T04:18:47.646Z,95733.69
2022-07-30T04:19:54.930Z,95735.72
2022-07-30T04:20:58.424Z,95739.25
2022-07-30T04:22:04.110Z,95736.47
2022-07-30T04:23:09.614Z,95744.81
2022-07-30T04:24:14.012Z,95736.47
2022-07-30T04:25:22.951Z,95744.53
2022-07-30T04:26:27.459Z,95743.25
2022-07-30T04:27:31.835Z,95740.47
2022-07-30T04:28:36.379Z,95743.25
2022-07-30T04:29:38.800Z,95739.72
2022-07-30T04:30:42.671Z,95738.97
2022-07-30T04:31:44.998Z,95745.28
2022-07-30T04:33:09.825Z,95743.75
2022-07-30T04:34:49.316Z,95748.53
2022-07-30T04:35:55.154Z,95747.78
2022-07-30T04:37:12.032Z,95747.78
2022-07-30T04:38:14.343Z,95739.94
2022-07-30T04:39:20.137Z,95739.94
2022-07-30T04:40:22.220Z,95743.97
2022-07-30T04:41:25.541Z,95735.63
2022-07-30T04:42:50.849Z,95749.50
2022-07-30T04:43:54.804Z,95745.50
2022-07-30T04:44:58.266Z,95745.50
2022-07-30T04:46:07.788Z,95747.03
2022-07-30T04:47:11.043Z,95751.31
2022-07-30T04:48:26.699Z,95750.56
2022-07-30T04:49:30.277Z,95762.41
2022-07-30T04:50:35.966Z,95750.06
2022-07-30T04:51:43.606Z,95750.06
2022-07-30T04:52:46.462Z,95759.66
2022-07-30T04:53:54.812Z,95755.63
2022-07-30T04:54:59.624Z,95754.09
2022-07-30T04:56:05.328Z,95765.19
2022-07-30T04:57:09.239Z,95759.66
2022-07-30T04:58:16.293Z,95761.19
2022-07-30T04:59:20.405Z,95761.19
2022-07-30T05:00:23.621Z,95756.09
2022-07-30T05:01:34.140Z,95763.69
2022-07-30T05:02:45.274Z,95756.63
2022-07-30T05:03:51.314Z,95762.16
2022-07-30T05:04:56.035Z,95765.72
2022-07-30T05:06:00.781Z,95761.38
2022-07-30T05:07:08.693Z,95762.66
2022-07-30T05:08:12.968Z,95763.41
2022-07-30T05:09:17.268Z,95757.84
2022-07-30T05:10:20.290Z,95767.72
2022-07-30T05:11:23.722Z,95751.06
2022-07-30T05:12:32.837Z,95769.25
2022-07-30T05:13:38.362Z,95766.47
2022-07-30T05:14:48.101Z,95758.13
2022-07-30T05:15:51.580Z,95763.22
2022-07-30T05:16:56.075Z,95762.41
2022-07-30T05:17:59.097Z,95759.66
2022-07-30T05:19:07.478Z,95769.25
2022-07-30T05:20:12.379Z,95770.00
2022-07-30T05:21:29.760Z,95769.25
2022-07-30T05:22:32.133Z,95777.09
2022-07-30T05:23:35.308Z,95773.53
2022-07-30T05:24:45.321Z,95774.31
2022-07-30T05:25:48.248Z,95778.34
2022-07-30T05:26:57.233Z,95777.56
2022-07-30T05:28:01.790Z,95781.09
2022-07-30T05:29:07.268Z,95781.09
2022-07-30T05:30:24.101Z,95782.84
2022-07-30T05:31:33.199Z,95783.59
2022-07-30T05:32:37.709Z,95786.88
2022-07-30T05:33:43.398Z,95784.09
2022-07-30T05:34:53.036Z,95786.88
2022-07-30T05:35:55.037Z,95792.44
2022-07-30T05:36:58.595Z,95793.69
2022-07-30T05:38:01.362Z,95786.88
2022-07-30T05:39:09.748Z,95789.66
2022-07-30T05:40:22.139Z,95793.19
2022-07-30T05:41:44.276Z,95791.66
2022-07-30T05:42:51.934Z,95787.66
2022-07-30T05:43:55.882Z,95788.88
2022-07-30T05:45:00.255Z,95787.66
2022-07-30T05:46:02.501Z,95791.19
2022-07-30T05:47:05.519Z,95789.94
2022-07-30T05:48:07.585Z,95788.69
2022-07-30T05:49:10.583Z,95781.88
2022-07-30T05:50:14.261Z,95792.50
2022-07-30T05:51:19.357Z,95795.28
2022-07-30T05:52:21.274Z,95786.94
2022-07-30T05:53:24.488Z,95794.03
2022-07-30T05:54:56.089Z,95791.28
2022-07-30T05:56:16.745Z,95796.81
2022-07-30T05:57:43.068Z,95798.81
2022-07-30T05:58:45.052Z,95796.81
2022-07-30T05:59:52.069Z,95802.38
2022-07-30T06:00:59.306Z,95801.59
2022-07-30T06:02:06.225Z,95804.38
2022-07-30T06:03:29.447Z,95800.06
2022-07-30T06:04:52.599Z,95804.09
2022-07-30T06:05:56.235Z,95808.88
2022-07-30T06:06:59.339Z,95806.88
2022-07-30T06:08:02.027Z,95810.44
2022-07-30T06:09:06.518Z,95804.09
2022-07-30T06:10:08.821Z,95810.44
2022-07-30T06:11:13.054Z,95812.72
2022-07-30T06:12:15.814Z,95819.81
2022-07-30T06:13:19.095Z,95823.81
2022-07-30T06:14:21.254Z,95818.25
2022-07-30T06:15:25.944Z,95816.75
2022-07-30T06:16:29.504Z,95827.84
2022-07-30T06:17:32.377Z,95823.81
2022-07-30T06:18:58.067Z,95830.63
2022-07-30T06:20:17.692Z,95822.31
2022-07-30T06:22:06.321Z,95819.53
2022-07-30T06:23:12.210Z,95826.59
2022-07-30T06:24:37.958Z,95827.84
2022-07-30T06:25:49.541Z,95828.16
2022-07-30T06:26:52.101Z,95829.38
2022-07-30T06:27:56.053Z,95823.34
2022-07-30T06:28:58.002Z,95828.44
2022-07-30T06:30:08.483Z,95833.56
2022-07-30T06:31:10.769Z,95831.06
2022-07-30T06:32:13.824Z,95828.56
2022-07-30T06:33:15.700Z,95827.31
2022-07-30T06:34:18.656Z,95834.13
2022-07-30T06:35:22.783Z,95834.88
2022-07-30T06:36:24.794Z,95824.16
2022-07-30T06:37:58.846Z,95831.09
2022-07-30T06:39:05.021Z,95823.66
2022-07-30T06:40:27.865Z,95835.66
2022-07-30T06:41:40.466Z,95831.97
2022-07-30T06:42:43.500Z,95834.34
2022-07-30T06:44:08.480Z,95836.97
2022-07-30T06:45:30.122Z,95834.22
2022-07-30T06:46:56.324Z,95831.78
2022-07-30T06:48:00.990Z,95846.72
2022-07-30T06:49:07.186Z,95840.44
2022-07-30T06:50:10.138Z,95835.94
2022-07-30T06:51:14.593Z,95849.66
2022-07-30T06:52:18.854Z,95841.81
2022-07-30T06:53:28.148Z,95840.88
2022-07-30T06:54:49.180Z,95838.34
2022-07-30T06:56:00.237Z,95840.13
2022-07-30T06:57:09.700Z,95841.19
2022-07-30T06:58:11.936Z,95845.00
2022-07-30T06:59:57.196Z,95852.84
2022-07-30T07:01:16.037Z,95850.84
2022-07-30T07:02:18.030Z,95842.47
2022-07-30T07:03:39.642Z,95847.28
2022-07-30T07:04:43.244Z,95849.56
2022-07-30T07:05:46.393Z,95844.00
2022-07-30T07:06:48.290Z,95841.47
2022-07-30T07:08:00.075Z,95850.88
2022-07-30T07:09:09.609Z,95851.66
2022-07-30T07:10:21.408Z,95852.91
2022-07-30T07:11:28.974Z,95850.09
2022-07-30T07:12:33.614Z,95852.41
2022-07-30T07:13:35.902Z,95854.72
2022-07-30T07:14:42.710Z,95849.13
2022-07-30T07:15:44.865Z,95845.84
2022-07-30T07:16:53.045Z,95856.50
2022-07-30T07:18:15.453Z,95854.00
2022-07-30T07:19:59.726Z,95856.25
2022-07-30T07:20:48.696Z,95861.06
2022-07-30T07:21:50.544Z,95850.22
2022-07-30T07:22:53.515Z,95858.56
2022-07-30T07:23:55.659Z,95855.78
2022-07-30T07:25:18.494Z,95857.56
2022-07-30T07:26:20.557Z,95853.81
2022-07-30T07:27:23.793Z,95861.66
2022-07-30T07:28:33.487Z,95863.94
2022-07-30T07:29:37.313Z,95859.91
2022-07-30T07:30:39.349Z,95859.41
2022-07-30T07:32:06.472Z,95849.53
2022-07-30T07:33:06.106Z,95857.38
2022-07-30T07:34:09.151Z,95867.75
2022-07-30T07:35:12.300Z,95862.94
2022-07-30T07:36:16.836Z,95854.59
2022-07-30T07:37:18.860Z,95857.38
2022-07-30T07:38:22.948Z,95851.31
2022-07-30T07:39:26.085Z,95854.38
2022-07-30T07:40:30.331Z,95853.91
2022-07-30T07:41:48.241Z,95854.66
2022-07-30T07:42:54.430Z,95856.69
2022-07-30T07:43:56.364Z,95864.25
2022-07-30T07:45:08.908Z,95853.91
2022-07-30T07:46:33.818Z,95857.94
2022-07-30T07:47:43.801Z,95865.03
2022-07-30T07:49:16.263Z,95849.84
2022-07-30T07:50:24.896Z,95853.38
2022-07-30T07:51:46.862Z,95855.41
2022-07-30T07:52:52.716Z,95852.13
2022-07-30T07:54:19.877Z,95848.09
2022-07-30T07:55:18.729Z,95848.09
2022-07-30T07:56:22.276Z,95854.41
2022-07-30T07:57:25.590Z,95853.94
2022-07-30T07:58:31.082Z,95847.88
2022-07-30T07:59:40.619Z,95844.56
2022-07-30T08:00:47.026Z,95844.84
2022-07-30T08:01:50.511Z,95843.59
2022-07-30T08:02:52.473Z,95850.69
2022-07-30T08:03:55.561Z,95849.91
2022-07-30T08:05:18.326Z,95851.41
2022-07-30T08:06:47.514Z,95851.13
2022-07-30T08:08:15.317Z,95850.66
2022-07-30T08:09:51.839Z,95843.81
2022-07-30T08:11:17.594Z,95845.63
2022-07-30T08:12:57.243Z,95847.13
2022-07-30T08:14:18.597Z,95851.13
2022-07-30T08:15:55.613Z,95847.06
2022-07-30T08:17:18.539Z,95857.66
2022-07-30T08:18:42.216Z,95864.50
2022-07-30T08:19:52.115Z,95854.38
2022-07-30T08:20:58.314Z,95859.47
2022-07-30T08:22:06.430Z,95846.56
2022-07-30T08:23:09.491Z,95850.38
2022-07-30T08:24:11.474Z,95842.31
2022-07-30T08:25:24.153Z,95852.16
2022-07-30T08:26:28.142Z,95850.66
2022-07-30T08:27:30.436Z,95856.50
2022-07-30T08:28:36.944Z,95854.75
2022-07-30T08:29:41.771Z,95844.34
2022-07-30T08:30:45.139Z,95854.50
2022-07-30T08:31:47.140Z,95849.72
2022-07-30T08:32:50.414Z,95853.53
2022-07-30T08:33:52.426Z,95851.00
2022-07-30T08:34:55.401Z,95851.75
2022-07-30T08:35:59.362Z,95855.31
2022-07-30T08:37:07.054Z,95858.84
2022-07-30T08:38:10.910Z,95850.03
2022-07-30T08:39:13.556Z,95858.38
2022-07-30T08:40:19.492Z,95845.97
2022-07-30T08:41:36.482Z,95860.69
2022-07-30T08:42:39.901Z,95857.13
2022-07-30T08:43:43.306Z,95852.34
2022-07-30T08:44:47.185Z,95850.31
2022-07-30T08:45:52.163Z,95848.28
2022-07-30T08:47:19.514Z,95853.09
2022-07-30T08:48:53.122Z,95841.19
2022-07-30T08:50:01.434Z,95854.59
2022-07-30T08:51:06.257Z,95846.50
2022-07-30T08:52:10.371Z,95863.22
2022-07-30T08:53:17.931Z,95858.41
2022-07-30T08:54:20.369Z,95853.63
2022-07-30T08:55:23.971Z,95859.19
2022-07-30T08:56:26.174Z,95852.84
2022-07-30T08:57:31.425Z,95852.34
2022-07-30T08:58:35.055Z,95858.19
2022-07-30T09:00:00.801Z,95860.50
2022-07-30T09:01:05.162Z,95856.44
2022-07-30T09:02:12.086Z,95860.75
2022-07-30T09:03:29.496Z,95858.72
2022-07-30T09:04:37.216Z,95871.41
2022-07-30T09:05:39.340Z,95862.75
2022-07-30T09:06:42.300Z,95866.81
2022-07-30T09:07:45.369Z,95864.03
2022-07-30T09:08:53.881Z,95869.63
2022-07-30T09:09:56.657Z,95862.00
2022-07-30T09:11:00.124Z,95869.88
2022-07-30T09:12:02.391Z,95858.72
2022-07-30T09:13:06.990Z,95866.09
2022-07-30T09:14:10.052Z,95859.28
2022-07-30T09:15:16.469Z,95863.31
2022-07-30T09:16:21.345Z,95868.88
2022-07-30T09:17:25.056Z,95859.00
2022-07-30T09:18:33.949Z,95859.75
2022-07-30T09:19:36.069Z,95862.53
2022-07-30T09:20:39.250Z,95863.31
2022-07-30T09:21:55.746Z,95869.63
2022-07-30T09:23:07.425Z,95857.72
2022-07-30T09:24:43.109Z,95859.28
2022-07-30T09:26:06.390Z,95871.19
2022-07-30T09:27:14.148Z,95860.78
2022-07-30T09:28:34.964Z,95866.34
2022-07-30T09:29:57.342Z,95860.78
2022-07-30T09:31:21.199Z,95865.34
2022-07-30T09:32:51.313Z,95871.72
2022-07-30T09:34:26.237Z,95870.19
2022-07-30T09:35:42.187Z,95863.56
2022-07-30T09:36:46.909Z,95867.88
2022-07-30T09:38:10.103Z,95863.84
2022-07-30T09:39:35.451Z,95858.28
2022-07-30T09:40:50.997Z,95863.09
2022-07-30T09:42:19.992Z,95862.56
2022-07-30T09:43:27.213Z,95861.81
2022-07-30T09:44:36.781Z,95866.91
2022-07-30T09:45:57.406Z,95864.88
2022-07-30T09:47:02.911Z,95864.38
2022-07-30T09:48:21.217Z,95865.91
2022-07-30T09:49:26.276Z,95862.84
2022-07-30T09:50:30.090Z,95869.16
2022-07-30T09:53:11.958Z,95862.63
2022-07-30T09:54:19.015Z,95860.09
2022-07-30T09:55:31.802Z,95863.63
2022-07-30T09:56:36.520Z,95861.59
2022-07-30T09:57:58.738Z,95866.69
2022-07-30T09:59:03.576Z,95861.88
2022-07-30T10:00:26.189Z,95862.16
2022-07-30T10:01:54.923Z,95866.97
2022-07-30T10:03:33.599Z,95863.66
2022-07-30T10:04:56.517Z,95865.19
2022-07-30T10:06:03.069Z,95865.19
2022-07-30T10:07:25.435Z,95861.91
2022-07-30T10:08:41.438Z,95863.44
2022-07-30T10:09:45.435Z,95852.00
2022-07-30T10:10:51.137Z,95861.91
2022-07-30T10:11:55.345Z,95852.78
2022-07-30T10:13:01.089Z,95852.28
2022-07-30T10:14:04.590Z,95854.81
2022-07-30T10:15:10.162Z,95852.28
2022-07-30T10:16:16.658Z,95850.75
2022-07-30T10:17:20.217Z,95856.59
2022-07-30T10:18:49.865Z,95855.34
2022-07-30T10:20:12.422Z,95865.72
2022-07-30T10:21:36.097Z,95859.38
2022-07-30T10:22:56.927Z,95855.34
2022-07-30T10:24:12.175Z,95863.19
2022-07-30T10:25:55.075Z,95859.91
2022-07-30T10:27:16.773Z,95855.88
2022-07-30T10:28:45.302Z,95862.97
2022-07-30T10:29:48.219Z,95868.53
2022-07-30T10:30:52.069Z,95859.41
2022-07-30T10:31:55.666Z,95871.31
2022-07-30T10:32:58.773Z,95862.97
2022-07-30T10:34:05.444Z,95870.84
2022-07-30T10:35:10.079Z,95861.19
2022-07-30T10:36:13.372Z,95874.66
2022-07-30T10:37:16.817Z,95858.19
2022-07-30T10:38:25.067Z,95871.59
2022-07-30T10:39:29.930Z,95872.38
2022-07-30T10:40:43.085Z,95857.66
2022-07-30T10:41:54.284Z,95865.53
2022-07-30T10:43:24.441Z,95854.88
2022-07-30T10:44:48.922Z,95868.81
2022-07-30T10:46:00.659Z,95865.28
2022-07-30T10:47:09.328Z,95865.00
2022-07-30T10:48:13.984Z,95851.59
2022-07-30T10:49:19.278Z,95860.44
2022-07-30T10:50:26.854Z,95862.97
2022-07-30T10:51:43.243Z,95860.66
2022-07-30T10:52:52.075Z,95865.47
2022-07-30T10:53:55.123Z,95865.47
2022-07-30T10:54:58.265Z,95867.03
2022-07-30T10:56:13.464Z,95864.47
2022-07-30T10:57:32.471Z,95865.25
2022-07-30T10:58:59.002Z,95867.03
2022-07-30T11:00:15.628Z,95873.63
2022-07-30T11:01:20.714Z,95873.63
2022-07-30T11:02:26.470Z,95869.59
2022-07-30T11:03:41.432Z,95864.03
2022-07-30T11:04:48.918Z,95868.31
2022-07-30T11:06:13.763Z,95863.50
2022-07-30T11:07:29.530Z,95868.59
2022-07-30T11:08:42.630Z,95865.81
2022-07-30T11:09:45.081Z,95861.75
2022-07-30T11:12:02.089Z,95875.19
2022-07-30T11:13:09.183Z,95855.66
2022-07-30T11:14:13.614Z,95863.53
2022-07-30T11:15:18.248Z,95865.06
2022-07-30T11:16:23.409Z,95872.19
2022-07-30T11:17:25.424Z,95861.78
2022-07-30T11:18:29.605Z,95855.94
2022-07-30T11:19:56.151Z,95857.19
2022-07-30T11:21:21.327Z,95869.13
2022-07-30T11:22:28.483Z,95869.13
2022-07-30T11:23:39.416Z,95869.13
2022-07-30T11:24:45.528Z,95865.06
2022-07-30T11:25:52.017Z,95861.50
2022-07-30T11:26:57.126Z,95864.31
2022-07-30T11:28:00.762Z,95868.34
2022-07-30T11:29:05.715Z,95856.94
2022-07-30T11:30:32.494Z,95859.47
2022-07-30T11:31:56.639Z,95870.34
2022-07-30T11:33:32.905Z,95872.13
2022-07-30T11:34:36.581Z,95857.66
2022-07-30T11:35:42.074Z,95872.59
2022-07-30T11:37:18.585Z,95868.00
2022-07-30T11:38:25.489Z,95865.47
2022-07-30T11:40:06.647Z,95873.56
2022-07-30T11:41:12.865Z,95871.00
2022-07-30T11:42:25.311Z,95866.78
2022-07-30T11:43:35.231Z,95879.25
2022-07-30T11:44:38.867Z,95870.16
2022-07-30T11:45:42.359Z,95867.19
2022-07-30T11:46:50.150Z,95858.66
2022-07-30T11:47:56.679Z,95863.78
2022-07-30T11:49:01.386Z,95868.13
2022-07-30T11:50:04.918Z,95869.41
2022-07-30T11:51:08.694Z,95874.75
2022-07-30T11:52:12.472Z,95878.59
2022-07-30T11:53:18.996Z,95873.75
2022-07-30T11:54:21.736Z,95872.50
2022-07-30T11:55:28.004Z,95870.47
2022-07-30T11:56:31.522Z,95870.47
2022-07-30T11:57:42.771Z,95868.72
2022-07-30T11:58:45.739Z,95868.47
2022-07-30T11:59:54.557Z,95865.97
2022-07-30T12:01:00.987Z,95871.81
2022-07-30T12:02:03.309Z,95865.97
2022-07-30T12:03:14.397Z,95868.75
2022-07-30T12:04:16.607Z,95861.91
2022-07-30T12:05:26.823Z,95863.44
2022-07-30T12:06:31.978Z,95866.72
2022-07-30T12:07:35.349Z,95867.47
2022-07-30T12:08:42.209Z,95863.44
2022-07-30T12:09:44.094Z,95855.34
2022-07-30T12:10:57.953Z,95861.94
2022-07-30T12:12:02.316Z,95851.53
2022-07-30T12:13:08.706Z,95861.44
2022-07-30T12:14:11.669Z,95862.19
2022-07-30T12:15:29.375Z,95856.63
2022-07-30T12:16:34.531Z,95852.56
2022-07-30T12:17:44.090Z,95857.38
2022-07-30T12:18:48.590Z,95857.38
2022-07-30T12:19:51.459Z,95868.53
2022-07-30T12:20:57.511Z,95858.66
2022-07-30T12:22:01.219Z,95862.97
2022-07-30T12:23:10.505Z,95861.69
2022-07-30T12:24:13.675Z,95853.31
2022-07-30T12:25:16.061Z,95862.47
2022-07-30T12:26:23.090Z,95859.16
2022-07-30T12:27:26.259Z,95866.56
2022-07-30T12:28:32.933Z,95856.16
2022-07-30T12:29:35.668Z,95861.25
2022-07-30T12:30:40.230Z,95870.34
2022-07-30T12:31:45.189Z,95858.69
2022-07-30T12:32:47.489Z,95859.97
2022-07-30T12:33:50.467Z,95865.81
2022-07-30T12:34:55.949Z,95862.25
2022-07-30T12:36:00.691Z,95853.09
2022-07-30T12:37:10.164Z,95863.03
2022-07-30T12:38:15.717Z,95868.59
2022-07-30T12:39:22.607Z,95861.47
2022-07-30T12:40:26.706Z,95873.41
2022-07-30T12:41:51.537Z,95863.03
2022-07-30T12:42:53.824Z,95852.63
2022-07-30T12:43:57.370Z,95863.78
2022-07-30T12:44:59.926Z,95861.75
2022-07-30T12:46:02.940Z,95867.59
2022-07-30T12:47:06.236Z,95862.53
2022-07-30T12:48:11.991Z,95856.94
2022-07-30T12:49:22.148Z,95859.22
2022-07-30T12:50:26.892Z,95861.25
2022-07-30T12:51:32.591Z,95854.91
2022-07-30T12:52:39.018Z,95862.00
2022-07-30T12:53:42.468Z,95857.97
2022-07-30T12:54:45.336Z,95862.75
2022-07-30T12:55:47.299Z,95856.44
2022-07-30T12:57:01.473Z,95860.75
2022-07-30T12:58:08.603Z,95865.06
2022-07-30T12:59:21.658Z,95854.66
2022-07-30T13:00:26.596Z,95855.44
2022-07-30T13:01:41.943Z,95852.91
2022-07-30T13:02:44.986Z,95858.47
2022-07-30T13:03:48.105Z,95852.41
2022-07-30T13:05:10.158Z,95849.63
2022-07-30T13:06:19.267Z,95840.00
2022-07-30T13:07:21.302Z,95847.84
2022-07-30T13:08:53.999Z,95849.38
2022-07-30T13:10:10.973Z,95855.22
2022-07-30T13:11:13.645Z,95846.06
2022-07-30T13:12:16.487Z,95841.28
2022-07-30T13:13:18.395Z,95853.94
2022-07-30T13:14:26.574Z,95852.44
2022-07-30T13:15:28.806Z,95858.03
2022-07-30T13:16:33.034Z,95855.47
2022-07-30T13:17:37.782Z,95848.38
2022-07-30T13:18:41.682Z,95857.50
2022-07-30T13:19:44.916Z,95842.78
2022-07-30T13:20:49.421Z,95848.88
2022-07-30T13:21:52.667Z,95849.66
2022-07-30T13:22:56.867Z,95843.81
2022-07-30T13:24:07.454Z,95846.59
2022-07-30T13:25:12.061Z,95850.91